createdAt,value
2022-08-31T00:01:01.572Z,101267.72
2022-08-31T00:03:48.507Z,101270.41
2022-08-31T00:06:17.998Z,101269.53
2022-08-31T00:08:47.020Z,101267.88
2022-08-31T00:11:17.048Z,101268.00
2022-08-31T00:13:47.740Z,101262.78
2022-08-31T00:16:18.200Z,101262.75
2022-08-31T00:18:47.471Z,101269.03
2022-08-31T00:21:16.455Z,101264.66
2022-08-31T00:23:45.442Z,101265.63
2022-08-31T00:26:14.452Z,101265.66
2022-08-31T00:28:43.804Z,101263.03
2022-08-31T00:31:18.461Z,101259.69
2022-08-31T00:33:52.439Z,101266.75
2022-08-31T00:36:25.469Z,101199.41
2022-08-31T00:38:55.510Z,101265.00
2022-08-31T00:41:27.248Z,101265.88
2022-08-31T00:43:58.387Z,101273.88
2022-08-31T00:46:33.125Z,101274.75
2022-08-31T00:49:06.071Z,101270.38
2022-08-31T00:51:40.910Z,101273.94
2022-08-31T00:54:12.925Z,101273.97
2022-08-31T00:56:45.010Z,101273.13
2022-08-31T00:59:16.362Z,101271.50
2022-08-31T01:01:46.847Z,101280.34
2022-08-31T01:04:16.339Z,101268.88
2022-08-31T01:06:46.516Z,101276.94
2022-08-31T01:09:16.319Z,101270.84
2022-08-31T01:11:46.210Z,101272.56
2022-08-31T01:14:15.397Z,101278.88
2022-08-31T01:16:50.129Z,101277.22
2022-08-31T01:19:30.226Z,101278.97
2022-08-31T01:22:09.212Z,101275.38
2022-08-31T01:24:42.597Z,101272.75
2022-08-31T01:27:12.937Z,101273.72
2022-08-31T01:29:42.413Z,101273.81
2022-08-31T01:32:11.351Z,101269.44
2022-08-31T01:34:40.395Z,101269.59
2022-08-31T01:37:09.735Z,101270.53
2022-08-31T01:39:40.107Z,101275.88
2022-08-31T01:42:09.622Z,101273.28
2022-08-31T01:44:38.627Z,101269.72
2022-08-31T01:47:08.165Z,101276.91
2022-08-31T01:49:37.810Z,101274.31
2022-08-31T01:52:07.435Z,101268.09
2022-08-31T01:54:36.532Z,101273.47
2022-08-31T01:57:10.705Z,101270.88
2022-08-31T02:00:04.809Z,101271.91
2022-08-31T02:02:48.433Z,101268.44
2022-08-31T02:05:17.358Z,101240.59
2022-08-31T02:07:47.987Z,101266.06
2022-08-31T02:10:17.251Z,101268.97
2022-08-31T02:12:47.614Z,101259.44
2022-08-31T02:15:16.696Z,101268.50
2022-08-31T02:17:45.732Z,101272.25
2022-08-31T02:20:17.131Z,101184.97
2022-08-31T02:22:48.605Z,101269.78
2022-08-31T02:25:18.919Z,101263.72
2022-08-31T02:27:50.009Z,101263.69
2022-08-31T02:30:21.110Z,101260.22
2022-08-31T02:32:50.030Z,101263.78
2022-08-31T02:35:19.071Z,101266.56
2022-08-31T02:37:48.258Z,101271.91
2022-08-31T02:40:17.889Z,101266.63
2022-08-31T02:42:53.278Z,101260.34
2022-08-31T02:45:26.815Z,101263.78
2022-08-31T02:48:02.415Z,101267.41
2022-08-31T02:50:41.055Z,101258.53
2022-08-31T02:53:10.976Z,101269.13
2022-08-31T02:55:41.223Z,101266.44
2022-08-31T02:58:13.087Z,101270.91
2022-08-31T03:00:46.445Z,101262.06
2022-08-31T03:03:16.790Z,101268.22
2022-08-31T03:05:47.125Z,101273.53
2022-08-31T03:08:16.458Z,101260.31
2022-08-31T03:10:46.779Z,101260.34
2022-08-31T03:13:17.263Z,101258.69
2022-08-31T03:15:47.072Z,101256.13
2022-08-31T03:18:18.447Z,101252.81
2022-08-31T03:20:47.531Z,101256.56
2022-08-31T03:23:16.762Z,101252.91
2022-08-31T03:25:45.938Z,101243.31
2022-08-31T03:28:16.752Z,101247.63
2022-08-31T03:31:09.197Z,101254.97
2022-08-31T03:33:39.623Z,101248.06
2022-08-31T03:36:08.881Z,101251.53
2022-08-31T03:38:38.198Z,101258.59
2022-08-31T03:41:07.592Z,101266.84
2022-08-31T03:43:39.721Z,101266.00
2022-08-31T03:46:11.999Z,101273.28
2022-08-31T03:48:47.074Z,101263.50
2022-08-31T03:51:16.564Z,101261.91
2022-08-31T03:53:45.741Z,101270.69
2022-08-31T03:56:20.232Z,101264.50
2022-08-31T03:58:53.045Z,101278.78
2022-08-31T04:01:40.418Z,101277.97
2022-08-31T04:04:27.637Z,101277.97
2022-08-31T04:07:42.233Z,101275.44
2022-08-31T04:10:32.286Z,101273.78
2022-08-31T04:13:36.116Z,101231.09
2022-08-31T04:16:27.168Z,101285.69
2022-08-31T04:19:25.002Z,101281.16
2022-08-31T04:22:04.660Z,101283.06
2022-08-31T04:24:38.097Z,101282.25
2022-08-31T04:27:07.982Z,101286.81
2022-08-31T04:29:36.992Z,101287.72
2022-08-31T04:32:07.742Z,101291.38
2022-08-31T04:34:36.777Z,101296.66
2022-08-31T04:37:08.961Z,101283.38
2022-08-31T04:39:50.686Z,101298.44
2022-08-31T04:42:21.168Z,101294.06
2022-08-31T04:44:50.362Z,101292.25
2022-08-31T04:47:21.545Z,101304.53
2022-08-31T04:49:50.783Z,101302.88
2022-08-31T04:52:19.458Z,101307.25
2022-08-31T04:54:53.906Z,101310.00
2022-08-31T04:57:22.855Z,101308.13
2022-08-31T04:59:51.936Z,101305.44
2022-08-31T05:02:41.033Z,101313.34
2022-08-31T05:05:18.058Z,101314.19
2022-08-31T05:07:47.035Z,101322.09
2022-08-31T05:10:17.092Z,101322.00
2022-08-31T05:12:46.089Z,101323.75
2022-08-31T05:15:17.420Z,101326.31
2022-08-31T05:17:47.947Z,101321.78
2022-08-31T05:20:17.982Z,101327.91
2022-08-31T05:22:47.398Z,101333.22
2022-08-31T05:25:16.557Z,101326.09
2022-08-31T05:27:45.572Z,101329.47
2022-08-31T05:30:15.305Z,101327.63
2022-08-31T05:32:53.773Z,101336.25
2022-08-31T05:35:22.775Z,101333.53
2022-08-31T05:37:52.769Z,101335.38
2022-08-31T05:40:22.425Z,101334.41
2022-08-31T05:42:51.484Z,101337.97
2022-08-31T05:45:21.389Z,101336.13
2022-08-31T05:47:50.431Z,101340.38
2022-08-31T05:50:21.129Z,101342.88
2022-08-31T05:52:50.138Z,101344.56
2022-08-31T05:55:19.662Z,101339.03
2022-08-31T05:57:48.731Z,101340.38
2022-08-31T06:00:17.899Z,101344.38
2022-08-31T06:02:54.002Z,101349.19
2022-08-31T06:05:24.763Z,101358.47
2022-08-31T06:07:55.470Z,101358.84
2022-08-31T06:10:25.345Z,101361.91
2022-08-31T06:12:54.630Z,101365.16
2022-08-31T06:15:24.825Z,101365.44
2022-08-31T06:17:54.355Z,101358.47
2022-08-31T06:20:26.870Z,101366.44
2022-08-31T06:22:56.035Z,101374.38
2022-08-31T06:25:36.805Z,101370.75
2022-08-31T06:28:07.027Z,101375.28
2022-08-31T06:30:54.420Z,101371.69
2022-08-31T06:33:25.931Z,101373.56
2022-08-31T06:36:22.505Z,101373.31
2022-08-31T06:39:01.937Z,101376.81
2022-08-31T06:41:49.038Z,101370.91
2022-08-31T06:44:47.260Z,101378.84
2022-08-31T06:47:23.989Z,101377.72
2022-08-31T06:49:54.008Z,101384.56
2022-08-31T06:52:25.443Z,101388.25
2022-08-31T06:55:09.726Z,101386.97
2022-08-31T06:57:57.184Z,101388.09
2022-08-31T07:00:49.499Z,101386.22
2022-08-31T07:03:49.764Z,101395.53
2022-08-31T07:06:21.388Z,101387.97
2022-08-31T07:08:55.021Z,101392.13
2022-08-31T07:11:28.139Z,101394.75
2022-08-31T07:13:58.738Z,101354.66
2022-08-31T07:16:30.234Z,101403.34
2022-08-31T07:19:03.536Z,101406.59
2022-08-31T07:21:34.663Z,101418.09
2022-08-31T07:24:07.195Z,101409.97
2022-08-31T07:26:39.856Z,101417.88
2022-08-31T07:29:11.903Z,101404.50
2022-08-31T07:31:44.082Z,101417.25
2022-08-31T07:34:15.812Z,101418.00
2022-08-31T07:37:20.309Z,101415.91
2022-08-31T07:40:08.848Z,101416.22
2022-08-31T07:42:43.368Z,101387.78
2022-08-31T07:45:22.911Z,101415.50
2022-08-31T07:47:56.263Z,101428.47
2022-08-31T07:50:30.938Z,101431.16
2022-08-31T07:53:24.978Z,101434.84
2022-08-31T07:56:04.307Z,101430.78
2022-08-31T07:58:35.145Z,101432.59
2022-08-31T08:01:04.434Z,101441.78
2022-08-31T08:03:33.697Z,101444.94
2022-08-31T08:06:21.935Z,101448.13
2022-08-31T08:09:24.857Z,101429.97
2022-08-31T08:12:07.354Z,101438.56
2022-08-31T08:15:02.324Z,101446.13
2022-08-31T08:17:50.064Z,101443.25
2022-08-31T08:20:37.244Z,101436.22
2022-08-31T08:23:25.896Z,101432.09
2022-08-31T08:26:21.196Z,101439.16
2022-08-31T08:29:12.573Z,101437.31
2022-08-31T08:31:48.357Z,101430.97
2022-08-31T08:34:17.754Z,101419.88
2022-08-31T08:36:47.446Z,101431.75
2022-08-31T08:39:17.500Z,101440.81
2022-08-31T08:41:59.297Z,101444.31
2022-08-31T08:44:33.139Z,101444.38
2022-08-31T08:47:06.654Z,101438.63
2022-08-31T08:49:54.237Z,101449.47
2022-08-31T08:52:28.768Z,101446.44
2022-08-31T08:55:03.222Z,101443.34
2022-08-31T08:57:35.721Z,101443.69
2022-08-31T09:00:12.601Z,101451.19
2022-08-31T09:02:58.336Z,101453.94
2022-08-31T09:06:02.411Z,101454.88
2022-08-31T09:09:12.197Z,101448.19
2022-08-31T09:11:59.567Z,101444.81
2022-08-31T09:14:48.303Z,101441.56
2022-08-31T09:17:36.025Z,101446.38
2022-08-31T09:20:07.624Z,101438.03
2022-08-31T09:22:50.329Z,101401.56
2022-08-31T09:25:28.498Z,101440.72
2022-08-31T09:28:36.044Z,101441.09
2022-08-31T09:31:05.143Z,101438.47
2022-08-31T09:33:47.818Z,101424.34
2022-08-31T09:36:22.554Z,101438.22
2022-08-31T09:38:51.986Z,101431.59
2022-08-31T09:41:35.549Z,101438.34
2022-08-31T09:44:41.863Z,101453.59
2022-08-31T09:47:48.691Z,101425.16
2022-08-31T09:50:41.777Z,101440.94
2022-08-31T09:53:38.042Z,101440.22
2022-08-31T09:56:19.999Z,101436.44
2022-08-31T09:58:52.664Z,101438.47
2022-08-31T10:01:34.237Z,101387.97
2022-08-31T10:04:19.128Z,101427.31
2022-08-31T10:06:56.446Z,101433.41
2022-08-31T10:09:36.230Z,101433.59
2022-08-31T10:12:12.646Z,101416.31
2022-08-31T10:14:52.310Z,101381.72
2022-08-31T10:17:32.186Z,101395.28
2022-08-31T10:20:10.510Z,101397.34
2022-08-31T10:22:47.240Z,101349.44
2022-08-31T10:25:24.496Z,101402.84
2022-08-31T10:28:00.102Z,101406.91
2022-08-31T10:30:44.718Z,101355.47
2022-08-31T10:33:17.943Z,101393.03
2022-08-31T10:35:54.789Z,101389.25
2022-08-31T10:38:34.644Z,101398.44
2022-08-31T10:41:11.546Z,101390.31
2022-08-31T10:43:49.161Z,101398.50
2022-08-31T10:46:19.041Z,101394.34
2022-08-31T10:48:54.786Z,101400.00
2022-08-31T10:51:31.634Z,101390.28
2022-08-31T10:54:22.155Z,101398.91
2022-08-31T10:57:01.884Z,101390.84
2022-08-31T10:59:40.854Z,101398.78
2022-08-31T11:02:53.061Z,101366.47
2022-08-31T11:05:32.785Z,101398.22
2022-08-31T11:08:17.105Z,101392.53
2022-08-31T11:10:52.038Z,101396.16
2022-08-31T11:13:49.663Z,101356.16
2022-08-31T11:16:34.377Z,101390.34
2022-08-31T11:19:40.187Z,101391.16
2022-08-31T11:22:37.752Z,101367.91
2022-08-31T11:25:49.343Z,101397.38
2022-08-31T11:28:34.377Z,101392.66
2022-08-31T11:31:20.457Z,101339.09
2022-08-31T11:34:14.639Z,101392.38
2022-08-31T11:36:51.380Z,101388.84
2022-08-31T11:39:38.532Z,101381.13
2022-08-31T11:42:53.680Z,101388.28
2022-08-31T11:45:33.263Z,101389.63
2022-08-31T11:48:02.750Z,101382.28
2022-08-31T11:51:07.379Z,101389.84
2022-08-31T11:53:44.274Z,101374.56
2022-08-31T11:56:15.352Z,101381.47
2022-08-31T11:58:48.196Z,101374.63
2022-08-31T12:01:39.579Z,101373.28
2022-08-31T12:05:00.746Z,101382.00
2022-08-31T12:07:39.254Z,101334.53
2022-08-31T12:10:47.659Z,101368.69
2022-08-31T12:13:45.975Z,101296.22
2022-08-31T12:16:54.965Z,101347.56
2022-08-31T12:20:04.954Z,101337.22
2022-08-31T12:23:37.407Z,101352.78
2022-08-31T12:26:31.202Z,101358.44
2022-08-31T12:29:24.456Z,101352.34
2022-08-31T12:32:38.305Z,101352.47
2022-08-31T12:35:19.576Z,101349.41
2022-08-31T12:38:00.155Z,101348.72
2022-08-31T12:40:30.876Z,101350.47
2022-08-31T12:43:04.060Z,101352.53
2022-08-31T12:46:11.081Z,101346.28
2022-08-31T12:49:10.579Z,101354.84
2022-08-31T12:51:48.183Z,101334.38
2022-08-31T12:55:09.260Z,101349.22
2022-08-31T12:57:53.596Z,101345.72
2022-08-31T13:00:28.027Z,101349.06
2022-08-31T13:03:00.174Z,101345.91
2022-08-31T13:05:31.666Z,101338.06
2022-08-31T13:08:03.044Z,101337.00
2022-08-31T13:10:36.782Z,101335.81
2022-08-31T13:13:08.408Z,101339.66
2022-08-31T13:15:40.226Z,101336.84
2022-08-31T13:18:14.271Z,101329.44
2022-08-31T13:20:46.085Z,101301.09
2022-08-31T13:23:27.663Z,101324.81
2022-08-31T13:26:05.893Z,101323.44
2022-08-31T13:28:35.219Z,101320.84
2022-08-31T13:31:08.050Z,101326.25
2022-08-31T13:33:40.301Z,101322.94
2022-08-31T13:36:32.255Z,101323.66
2022-08-31T13:39:12.810Z,101322.25
2022-08-31T13:41:57.572Z,101318.16
2022-08-31T13:44:39.328Z,101249.47
2022-08-31T13:47:17.044Z,101323.94
2022-08-31T13:49:46.241Z,101325.19
2022-08-31T13:52:22.452Z,101317.91
2022-08-31T13:55:02.408Z,101320.19
2022-08-31T13:57:34.850Z,101319.84
2022-08-31T14:00:29.532Z,101308.84
2022-08-31T14:03:01.771Z,101304.75
2022-08-31T14:05:33.295Z,101311.97
2022-08-31T14:08:04.105Z,101306.41
2022-08-31T14:10:38.288Z,101315.53
2022-08-31T14:13:18.592Z,101313.72
2022-08-31T14:15:53.588Z,101320.16
2022-08-31T14:18:28.024Z,101264.88
2022-08-31T14:21:22.841Z,101315.09
2022-08-31T14:24:01.606Z,101321.13
2022-08-31T14:26:34.345Z,101313.13
2022-08-31T14:29:10.855Z,101311.53
2022-08-31T14:31:44.209Z,101312.19
2022-08-31T14:34:23.572Z,101308.78
2022-08-31T14:36:57.566Z,101316.19
2022-08-31T14:39:31.175Z,101313.66
2022-08-31T14:42:03.372Z,101311.84
2022-08-31T14:44:34.748Z,101310.06
2022-08-31T14:47:03.839Z,101313.81
2022-08-31T14:49:36.212Z,101304.69
2022-08-31T14:52:06.891Z,101321.56
2022-08-31T14:54:37.444Z,101304.78
2022-08-31T14:57:13.046Z,101306.88
2022-08-31T14:59:46.902Z,101304.78
2022-08-31T15:02:21.449Z,101155.00
2022-08-31T15:04:51.061Z,101290.00
2022-08-31T15:07:21.185Z,101298.44
2022-08-31T15:09:50.434Z,101300.84
2022-08-31T15:12:20.709Z,101298.34
2022-08-31T15:14:49.933Z,101300.53
2022-08-31T15:17:21.911Z,101294.94
2022-08-31T15:19:56.169Z,101293.41
2022-08-31T15:22:26.885Z,101288.94
2022-08-31T15:24:56.403Z,101264.94
2022-08-31T15:27:29.060Z,101292.22
2022-08-31T15:30:04.573Z,101289.41
2022-08-31T15:32:33.669Z,101289.06
2022-08-31T15:35:03.038Z,101286.03
2022-08-31T15:37:32.626Z,101287.28
2022-08-31T15:40:03.785Z,101289.03
2022-08-31T15:42:39.872Z,101281.88
2022-08-31T15:45:10.765Z,101243.50
2022-08-31T15:47:59.780Z,101275.78
2022-08-31T15:50:32.249Z,101282.06
2022-08-31T15:53:09.514Z,101248.69
2022-08-31T15:55:40.916Z,101265.03
2022-08-31T15:58:12.762Z,101261.88
2022-08-31T16:00:42.224Z,101266.03
2022-08-31T16:03:12.690Z,101264.66
2022-08-31T16:05:43.645Z,101266.78
2022-08-31T16:08:14.459Z,101264.34
2022-08-31T16:10:47.011Z,101267.78
2022-08-31T16:13:18.017Z,101248.31
2022-08-31T16:15:52.250Z,101253.47
2022-08-31T16:18:22.894Z,101255.66
2022-08-31T16:20:55.053Z,101247.47
2022-08-31T16:23:24.922Z,101252.69
2022-08-31T16:25:54.137Z,101253.94
2022-08-31T16:28:24.830Z,101254.94
2022-08-31T16:54:49.132Z,101238.84
2022-08-31T17:10:08.333Z,101230.84
2022-08-31T17:18:00.996Z,101241.38
2022-08-31T17:22:00.860Z,101238.84
2022-08-31T17:28:36.247Z,101238.88
2022-08-31T17:31:42.760Z,101248.88
2022-08-31T17:37:32.576Z,101246.59
2022-08-31T17:40:02.158Z,101246.38
2022-08-31T17:42:52.949Z,101247.75
2022-08-31T17:45:26.465Z,101249.88
2022-08-31T17:48:01.991Z,101251.00
2022-08-31T17:54:15.360Z,101244.44
2022-08-31T17:56:48.711Z,101244.56
2022-08-31T17:59:20.422Z,101252.31
2022-08-31T18:01:53.332Z,101199.63
2022-08-31T18:04:24.864Z,101252.19
2022-08-31T18:06:55.388Z,101250.38
2022-08-31T18:09:27.714Z,101251.72
2022-08-31T18:11:59.760Z,101259.09
2022-08-31T18:14:32.505Z,101260.97
2022-08-31T18:17:03.992Z,101255.75
2022-08-31T18:19:36.048Z,101263.25
2022-08-31T18:22:05.438Z,101262.44
2022-08-31T18:24:37.669Z,101265.56
2022-08-31T18:27:09.087Z,101275.72
2022-08-31T18:29:39.288Z,101270.22
2022-08-31T18:32:10.840Z,101276.03
2022-08-31T18:34:44.892Z,101276.31
2022-08-31T18:37:15.167Z,101275.94
2022-08-31T18:40:06.510Z,101276.66
2022-08-31T18:42:56.873Z,101282.34
2022-08-31T18:45:26.799Z,101291.34
2022-08-31T18:48:24.733Z,101288.50
2022-08-31T18:50:49.278Z,101287.44
2022-08-31T18:53:29.059Z,101289.69
2022-08-31T18:56:06.844Z,101292.88
2022-08-31T18:58:36.334Z,101293.69
2022-08-31T19:01:11.461Z,101289.72
2022-08-31T19:03:41.374Z,101292.88
2022-08-31T19:06:16.801Z,101299.81
2022-08-31T19:08:46.134Z,101299.31
2022-08-31T19:11:16.819Z,101292.44
2022-08-31T19:13:46.553Z,101295.47
2022-08-31T19:16:18.756Z,101298.34
2022-08-31T19:18:48.392Z,101297.56
2022-08-31T19:21:19.839Z,101295.06
2022-08-31T19:23:49.471Z,101298.66
2022-08-31T19:26:27.205Z,101300.50
2022-08-31T19:28:56.997Z,101293.53
2022-08-31T19:31:27.957Z,101289.25
2022-08-31T19:33:59.611Z,101291.88
2022-08-31T19:36:28.740Z,101292.00
2022-08-31T19:38:57.677Z,101289.38
2022-08-31T19:41:29.764Z,101290.44
2022-08-31T19:44:08.503Z,101292.31
2022-08-31T19:46:39.630Z,101288.81
2022-08-31T19:49:11.034Z,101289.03
2022-08-31T19:51:41.197Z,101291.94
2022-08-31T19:54:11.614Z,101289.41
2022-08-31T19:56:43.846Z,101284.28
2022-08-31T19:59:18.317Z,101287.34
2022-08-31T20:01:53.094Z,101284.78
2022-08-31T20:04:26.229Z,101283.91
2022-08-31T20:06:56.047Z,101278.50
2022-08-31T20:09:26.033Z,101284.09
2022-08-31T20:12:00.008Z,101285.94
2022-08-31T20:14:29.277Z,101288.56
2022-08-31T20:16:59.506Z,101288.88
2022-08-31T20:19:36.128Z,101296.19
2022-08-31T20:22:08.040Z,101291.09
2022-08-31T20:24:44.051Z,101295.56
2022-08-31T20:27:18.897Z,101298.19
2022-08-31T20:29:49.227Z,101294.78
2022-08-31T20:32:18.216Z,101296.72
2022-08-31T20:34:49.755Z,101299.56
2022-08-31T20:37:18.433Z,101263.75
2022-08-31T20:39:47.278Z,101295.22
2022-08-31T20:42:17.605Z,101303.16
2022-08-31T20:44:48.911Z,101294.44
2022-08-31T20:47:35.606Z,101292.63
2022-08-31T20:50:11.550Z,101293.50
2022-08-31T20:52:40.614Z,101298.69
2022-08-31T20:55:12.495Z,101297.66
2022-08-31T20:57:43.034Z,101301.88
2022-08-31T21:00:14.179Z,101297.94
2022-08-31T21:02:44.211Z,101298.97
2022-08-31T21:05:37.253Z,101308.72
2022-08-31T21:08:05.743Z,101307.69
2022-08-31T21:10:37.647Z,101316.59
2022-08-31T21:13:13.678Z,101315.13
2022-08-31T21:15:44.872Z,101313.50
2022-08-31T21:18:17.856Z,101310.13
2022-08-31T21:20:47.677Z,101309.34
2022-08-31T21:23:16.932Z,101312.09
2022-08-31T21:25:47.314Z,101315.66
2022-08-31T21:28:19.261Z,101294.72
2022-08-31T21:30:50.550Z,101314.00
2022-08-31T21:33:19.955Z,101317.66
2022-08-31T21:35:49.180Z,101320.31
2022-08-31T21:38:18.522Z,101317.66
2022-08-31T21:40:51.359Z,101318.63
2022-08-31T21:43:22.037Z,101315.06
2022-08-31T21:46:01.046Z,101324.91
2022-08-31T21:48:31.094Z,101321.47
2022-08-31T21:51:09.953Z,101321.56
2022-08-31T21:53:39.474Z,101320.59
2022-08-31T21:56:09.191Z,101322.38
2022-08-31T21:58:40.128Z,101314.28
2022-08-31T22:01:13.624Z,101319.66
2022-08-31T22:03:43.120Z,101320.59
2022-08-31T22:06:14.285Z,101330.22
2022-08-31T22:08:43.642Z,101329.13
2022-08-31T22:11:14.885Z,101336.16
2022-08-31T22:13:46.113Z,101333.34
2022-08-31T22:16:19.375Z,101334.91
2022-08-31T22:19:06.692Z,101333.03
2022-08-31T22:21:37.481Z,101296.25
2022-08-31T22:24:09.323Z,101330.38
2022-08-31T22:26:41.626Z,101335.47
2022-08-31T22:29:14.926Z,101336.81
2022-08-31T22:31:44.296Z,101341.91
2022-08-31T22:34:13.949Z,101331.66
2022-08-31T22:36:43.207Z,101338.34
2022-08-31T22:39:14.058Z,101343.06
2022-08-31T22:41:43.689Z,101338.69
2022-08-31T22:44:18.628Z,101309.03
2022-08-31T22:46:47.989Z,101338.72
2022-08-31T22:49:17.429Z,101335.13
2022-08-31T22:51:48.428Z,101339.59
2022-08-31T22:54:19.242Z,101339.78
2022-08-31T22:56:48.987Z,101333.75
2022-08-31T22:59:27.125Z,101332.88
2022-08-31T23:02:02.168Z,101334.75
2022-08-31T23:04:34.692Z,101339.09
2022-08-31T23:07:04.739Z,101343.31
2022-08-31T23:09:34.454Z,101326.44
2022-08-31T23:12:06.032Z,101339.97
2022-08-31T23:14:37.586Z,101342.47
2022-08-31T23:17:09.132Z,101336.13
2022-08-31T23:19:40.967Z,101339.59
2022-08-31T23:22:12.540Z,101329.56
2022-08-31T23:24:47.080Z,101334.78
2022-08-31T23:27:19.345Z,101335.69
2022-08-31T23:29:53.096Z,101287.41
2022-08-31T23:32:26.311Z,101326.59
2022-08-31T23:34:57.589Z,101322.41
2022-08-31T23:37:27.635Z,101322.63
2022-08-31T23:39:57.869Z,101321.88
2022-08-31T23:42:29.488Z,101319.56
2022-08-31T23:44:59.969Z,101317.13
2022-08-31T23:47:33.113Z,101313.38
2022-08-31T23:50:04.882Z,101317.81
2022-08-31T23:52:35.522Z,101311.75
2022-08-31T23:55:05.221Z,101314.34
2022-08-31T23:57:34.197Z,101310.16
